Time;durP1;ratioP1;P1;durP2;ratioP2;P2;SDS_P1;SDS_P2;PMS_P1;PMS_P2;Temp;Humidity;BMP_temperature;BMP_pressure;BME280_temperature;BME280_humidity;BME280_pressure;Samples;Min_cycle;Max_cycle;Signal;HPM_P1;HPM_P2
2023/10/27 00:01:49;;;;;;;20.17;13.63;;;;;;;;;;2609044;54;20442;-75
2023/10/27 00:04:16;;;;;;;21.90;14.20;;;;;;;;;;2609889;54;20416;-76
2023/10/27 00:06:42;;;;;;;18.17;13.47;;;;;;;;;;2613037;39;20838;-75
2023/10/27 00:09:08;;;;;;;19.97;13.73;;;;;;;;;;2612074;48;20980;-75
2023/10/27 00:11:35;;;;;;;23.37;14.97;;;;;;;;;;2612933;54;20428;-75
2023/10/27 00:14:02;;;;;;;19.50;14.20;;;;;;;;;;2612136;54;20969;-75
2023/10/27 00:16:29;;;;;;;19.53;14.07;;;;;;;;;;2611961;54;20408;-75
2023/10/27 00:18:55;;;;;;;20.00;13.50;;;;;;;;;;2612322;47;20431;-75
2023/10/27 00:21:21;;;;;;;17.83;13.50;;;;;;;;;;2612643;54;20423;-75
2023/10/27 00:23:47;;;;;;;23.97;15.33;;;;;;;;;;2613139;54;20462;-76
2023/10/27 00:26:13;;;;;;;22.60;14.00;;;;;;;;;;2613617;54;20423;-76
2023/10/27 00:28:39;;;;;;;18.00;14.07;;;;;;;;;;2612426;47;20522;-75
2023/10/27 00:31:05;;;;;;;21.60;15.33;;;;;;;;;;2611824;54;20423;-75
2023/10/27 00:33:31;;;;;;;19.47;14.27;;;;;;;;;;2611582;47;21008;-75
2023/10/27 00:35:59;;;;;;;23.30;14.37;;;;;;;;;;2612381;54;20408;-74
2023/10/27 00:38:25;;;;;;;24.37;14.23;;;;;;;;;;2612908;50;20423;-75
2023/10/27 00:40:51;;;;;;;22.00;15.50;;;;;;;;;;2611945;54;20455;-75
2023/10/27 00:43:18;;;;;;;20.90;15.60;;;;;;;;;;2613023;54;20435;-74
2023/10/27 00:45:49;;;;;;;21.20;15.20;;;;;;;;;;2609923;50;20455;-71
2023/10/27 00:48:16;;;;;;;20.33;13.90;;;;;;;;;;2609379;54;20450;-73
2023/10/27 00:50:43;;;;;;;19.40;14.97;;;;;;;;;;2609931;54;20420;-74
2023/10/27 00:53:09;;;;;;;21.20;14.80;;;;;;;;;;2607139;47;20415;-73
2023/10/27 00:55:36;;;;;;;21.77;16.07;;;;;;;;;;2609575;54;20411;-72
2023/10/27 00:58:02;;;;;;;22.70;15.57;;;;;;;;;;2609927;54;20897;-74
2023/10/27 01:00:29;;;;;;;23.13;15.33;;;;;;;;;;2609403;46;20423;-74
2023/10/27 01:02:55;;;;;;;20.20;14.30;;;;;;;;;;2610928;54;20416;-73
2023/10/27 01:05:21;;;;;;;22.07;16.00;;;;;;;;;;2610960;54;20406;-74
2023/10/27 01:07:47;;;;;;;19.87;15.30;;;;;;;;;;2609358;54;21035;-75
2023/10/27 01:10:13;;;;;;;22.30;14.77;;;;;;;;;;2609473;54;20439;-72
2023/10/27 01:12:43;;;;;;;22.27;15.13;;;;;;;;;;2609293;54;21036;-75
2023/10/27 01:15:09;;;;;;;20.93;15.00;;;;;;;;;;2609293;39;20795;-74
2023/10/27 01:17:35;;;;;;;21.47;16.03;;;;;;;;;;2608956;54;20458;-75
2023/10/27 01:20:01;;;;;;;24.87;15.00;;;;;;;;;;2608665;47;20431;-74
2023/10/27 01:22:27;;;;;;;21.70;14.87;;;;;;;;;;2609644;54;21019;-74
2023/10/27 01:24:55;;;;;;;18.90;14.57;;;;;;;;;;2609149;54;20422;-74
2023/10/27 01:27:21;;;;;;;21.57;14.87;;;;;;;;;;2609412;54;20415;-75
2023/10/27 01:29:47;;;;;;;22.87;14.10;;;;;;;;;;2609302;54;20420;-74
2023/10/27 01:32:14;;;;;;;21.73;15.10;;;;;;;;;;2607929;47;20453;-75
2023/10/27 01:34:40;;;;;;;21.70;14.10;;;;;;;;;;2608603;54;20428;-74
2023/10/27 01:37:06;;;;;;;18.40;13.07;;;;;;;;;;2609375;54;20977;-74
2023/10/27 01:39:32;;;;;;;17.30;13.23;;;;;;;;;;2608656;54;20447;-74
2023/10/27 01:41:58;;;;;;;22.60;13.63;;;;;;;;;;2608781;47;20984;-74
2023/10/27 01:44:24;;;;;;;20.20;12.90;;;;;;;;;;2609157;46;20418;-73
2023/10/27 01:46:50;;;;;;;23.70;15.07;;;;;;;;;;2609470;54;20389;-75
2023/10/27 01:49:17;;;;;;;19.57;14.30;;;;;;;;;;2609590;54;20431;-74
2023/10/27 01:51:43;;;;;;;18.13;14.13;;;;;;;;;;2609090;54;20458;-74
2023/10/27 01:54:09;;;;;;;19.30;14.20;;;;;;;;;;2608603;54;20407;-74
2023/10/27 01:56:35;;;;;;;23.23;13.23;;;;;;;;;;2612123;54;20423;-76
2023/10/27 01:59:01;;;;;;;20.33;15.00;;;;;;;;;;2612347;54;20423;-76
2023/10/27 02:01:28;;;;;;;19.60;14.30;;;;;;;;;;2612315;47;20461;-75
2023/10/27 02:03:54;;;;;;;20.47;14.47;;;;;;;;;;2611657;54;20426;-75
2023/10/27 02:06:28;;;;;;;17.93;13.70;;;;;;;;;;2613375;47;20438;-74
2023/10/27 02:08:54;;;;;;;17.80;13.53;;;;;;;;;;2614077;39;20805;-76
2023/10/27 02:11:21;;;;;;;20.80;13.87;;;;;;;;;;2611509;47;20450;-76
2023/10/27 02:13:49;;;;;;;16.80;13.60;;;;;;;;;;2611913;54;20423;-74
2023/10/27 02:16:15;;;;;;;21.87;13.50;;;;;;;;;;2612039;47;20450;-75
2023/10/27 02:19:06;;;;;;;26.40;13.20;;;;;;;;;;2611752;54;21108;-76
2023/10/27 02:21:32;;;;;;;19.30;13.47;;;;;;;;;;2611951;54;20422;-75
2023/10/27 02:23:58;;;;;;;18.87;13.20;;;;;;;;;;2611487;54;20419;-75
2023/10/27 02:26:24;;;;;;;20.63;13.17;;;;;;;;;;2611600;54;20442;-75
2023/10/27 02:28:50;;;;;;;21.23;12.50;;;;;;;;;;2609388;54;20989;-75
2023/10/27 02:31:18;;;;;;;16.90;12.20;;;;;;;;;;2609545;47;20965;-76
2023/10/27 02:33:44;;;;;;;17.30;11.20;;;;;;;;;;2609787;54;20434;-76
2023/10/27 02:36:10;;;;;;;17.73;11.70;;;;;;;;;;2610332;54;20461;-75
2023/10/27 02:38:36;;;;;;;23.43;13.20;;;;;;;;;;2610353;54;20395;-75
2023/10/27 02:41:12;;;;;;;18.40;11.60;;;;;;;;;;2609374;50;20418;-75
2023/10/27 02:43:38;;;;;;;17.10;11.70;;;;;;;;;;2610600;54;20419;-74
2023/10/27 02:46:05;;;;;;;20.50;10.67;;;;;;;;;;2609522;54;20542;-75
2023/10/27 02:48:32;;;;;;;20.73;11.53;;;;;;;;;;2610364;54;20384;-75
2023/10/27 02:50:58;;;;;;;16.10;10.27;;;;;;;;;;2609592;54;20425;-75
2023/10/27 02:53:24;;;;;;;16.70;9.53;;;;;;;;;;2610318;39;21457;-75
2023/10/27 02:55:50;;;;;;;21.30;9.73;;;;;;;;;;2610590;54;20431;-75
2023/10/27 02:58:17;;;;;;;17.63;10.73;;;;;;;;;;2609397;47;20396;-75
2023/10/27 03:00:43;;;;;;;19.10;9.63;;;;;;;;;;2609279;54;20388;-75
2023/10/27 03:03:09;;;;;;;14.17;7.63;;;;;;;;;;2610810;46;20427;-73
2023/10/27 03:05:36;;;;;;;19.63;9.60;;;;;;;;;;2611401;54;20910;-74
2023/10/27 03:08:02;;;;;;;14.47;8.37;;;;;;;;;;2609523;54;20424;-74
2023/10/27 03:10:28;;;;;;;20.50;9.37;;;;;;;;;;2610590;54;20453;-74
2023/10/27 03:12:55;;;;;;;23.20;10.63;;;;;;;;;;2611844;54;20412;-74
2023/10/27 03:15:21;;;;;;;18.03;9.77;;;;;;;;;;2609688;54;20422;-74
2023/10/27 03:17:48;;;;;;;17.47;8.83;;;;;;;;;;2609894;54;20423;-74
2023/10/27 03:20:15;;;;;;;16.50;8.70;;;;;;;;;;2609267;46;20470;-74
2023/10/27 03:22:41;;;;;;;19.67;7.83;;;;;;;;;;2612521;54;20418;-74
2023/10/27 03:25:07;;;;;;;19.57;8.60;;;;;;;;;;2613114;46;20438;-74
2023/10/27 03:27:33;;;;;;;13.90;8.90;;;;;;;;;;2612829;54;20396;-75
2023/10/27 03:29:59;;;;;;;18.67;8.53;;;;;;;;;;2613340;54;20387;-73
2023/10/27 03:32:27;;;;;;;15.70;8.63;;;;;;;;;;2612385;47;20431;-74
2023/10/27 03:34:54;;;;;;;12.87;8.10;;;;;;;;;;2613410;54;20403;-75
2023/10/27 03:37:20;;;;;;;13.67;8.40;;;;;;;;;;2609257;54;20426;-75
2023/10/27 03:39:46;;;;;;;14.93;7.80;;;;;;;;;;2608606;54;20451;-75
2023/10/27 03:42:12;;;;;;;14.30;7.97;;;;;;;;;;2609248;47;20527;-75
2023/10/27 03:44:38;;;;;;;12.67;7.90;;;;;;;;;;2609390;39;21010;-76
2023/10/27 03:47:04;;;;;;;12.53;8.33;;;;;;;;;;2609918;54;20418;-76
2023/10/27 03:49:30;;;;;;;17.87;7.53;;;;;;;;;;2609063;54;20499;-76
2023/10/27 03:51:57;;;;;;;22.20;9.63;;;;;;;;;;2609965;46;20458;-76
2023/10/27 03:54:23;;;;;;;14.00;8.23;;;;;;;;;;2610207;39;20821;-76
2023/10/27 03:56:49;;;;;;;10.77;8.60;;;;;;;;;;2609070;47;20419;-76
2023/10/27 03:59:18;;;;;;;15.43;8.13;;;;;;;;;;2610062;54;20406;-75
2023/10/27 04:01:44;;;;;;;15.73;8.17;;;;;;;;;;2609531;46;20461;-75
2023/10/27 04:04:11;;;;;;;13.83;7.17;;;;;;;;;;2608866;47;20403;-75
2023/10/27 04:06:37;;;;;;;11.20;7.93;;;;;;;;;;2608772;47;20416;-75
2023/10/27 04:09:04;;;;;;;18.07;8.10;;;;;;;;;;2609833;54;20414;-74
2023/10/27 04:11:30;;;;;;;13.13;8.80;;;;;;;;;;2609146;47;20428;-75
2023/10/27 04:13:56;;;;;;;14.10;8.03;;;;;;;;;;2610620;47;20511;-76
2023/10/27 04:16:22;;;;;;;18.37;7.97;;;;;;;;;;2611172;54;21044;-75
2023/10/27 04:18:48;;;;;;;13.27;8.33;;;;;;;;;;2610101;54;23959;-75
2023/10/27 04:21:14;;;;;;;12.07;8.50;;;;;;;;;;2609584;54;20408;-76
2023/10/27 04:23:40;;;;;;;16.10;8.53;;;;;;;;;;2609484;54;20416;-76
2023/10/27 04:26:06;;;;;;;12.50;7.87;;;;;;;;;;2610049;54;20542;-76
2023/10/27 04:28:32;;;;;;;27.73;8.33;;;;;;;;;;2609899;54;20399;-76
2023/10/27 04:30:58;;;;;;;13.50;6.90;;;;;;;;;;2609413;54;20438;-76
2023/10/27 04:33:25;;;;;;;14.67;9.23;;;;;;;;;;2609388;54;20869;-76
2023/10/27 04:35:51;;;;;;;14.63;7.23;;;;;;;;;;2608999;54;20422;-76
2023/10/27 04:38:18;;;;;;;20.47;8.40;;;;;;;;;;2609394;54;20403;-76
2023/10/27 04:40:44;;;;;;;11.90;7.63;;;;;;;;;;2609265;54;20582;-76
2023/10/27 04:43:10;;;;;;;12.40;7.00;;;;;;;;;;2610343;54;20423;-76
2023/10/27 04:45:36;;;;;;;13.80;8.17;;;;;;;;;;2610129;54;20415;-75
2023/10/27 04:48:02;;;;;;;11.30;7.73;;;;;;;;;;2609511;54;20427;-73
2023/10/27 04:50:28;;;;;;;21.17;10.73;;;;;;;;;;2609510;54;20435;-75
2023/10/27 04:52:54;;;;;;;17.60;9.60;;;;;;;;;;2608015;54;21197;-74
2023/10/27 04:55:20;;;;;;;15.83;8.20;;;;;;;;;;2609566;54;20416;-75
2023/10/27 04:57:46;;;;;;;12.77;8.03;;;;;;;;;;2608848;39;20904;-74
2023/10/27 05:00:13;;;;;;;18.47;9.13;;;;;;;;;;2609881;54;20391;-75
2023/10/27 05:02:39;;;;;;;13.93;7.97;;;;;;;;;;2609704;54;20408;-74
2023/10/27 05:05:05;;;;;;;15.10;8.03;;;;;;;;;;2609707;54;20501;-73
2023/10/27 05:07:31;;;;;;;15.50;8.47;;;;;;;;;;2609710;54;20423;-73
2023/10/27 05:09:57;;;;;;;13.27;8.43;;;;;;;;;;2609221;54;20430;-75
2023/10/27 05:12:24;;;;;;;16.90;8.57;;;;;;;;;;2608965;54;20427;-73
2023/10/27 05:14:50;;;;;;;15.30;8.30;;;;;;;;;;2609661;54;20805;-73
2023/10/27 05:17:17;;;;;;;17.73;8.47;;;;;;;;;;2611341;54;20427;-74
2023/10/27 05:19:43;;;;;;;13.30;8.03;;;;;;;;;;2610461;46;20451;-77
2023/10/27 05:22:09;;;;;;;14.17;7.73;;;;;;;;;;2609429;54;20431;-74
2023/10/27 05:24:35;;;;;;;10.90;7.87;;;;;;;;;;2607308;47;20436;-72
2023/10/27 05:27:01;;;;;;;13.00;7.30;;;;;;;;;;2611323;54;20431;-75
2023/10/27 05:29:27;;;;;;;14.80;7.50;;;;;;;;;;2612077;54;20412;-74
2023/10/27 05:31:53;;;;;;;20.63;8.63;;;;;;;;;;2610953;47;20812;-73
2023/10/27 05:34:20;;;;;;;18.57;7.60;;;;;;;;;;2611881;54;20427;-74
2023/10/27 05:36:46;;;;;;;11.83;7.80;;;;;;;;;;2611672;54;20901;-74
2023/10/27 05:39:19;;;;;;;14.90;7.77;;;;;;;;;;2612267;54;21044;-74
2023/10/27 05:41:46;;;;;;;19.57;8.20;;;;;;;;;;2612553;31;20869;-74
2023/10/27 05:44:13;;;;;;;17.03;7.83;;;;;;;;;;2612300;54;20510;-76
2023/10/27 05:46:39;;;;;;;17.90;7.30;;;;;;;;;;2612046;54;20470;-73
2023/10/27 05:49:05;;;;;;;11.90;6.60;;;;;;;;;;2611249;54;20430;-75
2023/10/27 05:51:32;;;;;;;10.20;6.73;;;;;;;;;;2612016;54;20387;-75
2023/10/27 05:53:58;;;;;;;12.80;7.70;;;;;;;;;;2612236;54;20458;-74
2023/10/27 05:56:25;;;;;;;15.73;7.67;;;;;;;;;;2613099;54;20433;-77
2023/10/27 05:58:51;;;;;;;18.80;7.43;;;;;;;;;;2612427;54;20498;-77
2023/10/27 06:01:17;;;;;;;14.50;7.37;;;;;;;;;;2612101;46;20453;-76
2023/10/27 06:03:43;;;;;;;16.17;7.23;;;;;;;;;;2613517;39;20925;-77
2023/10/27 06:06:09;;;;;;;22.40;8.17;;;;;;;;;;2614346;54;20986;-76
2023/10/27 06:08:40;;;;;;;12.57;7.40;;;;;;;;;;2614499;54;20446;-76
2023/10/27 06:11:07;;;;;;;11.23;6.90;;;;;;;;;;2615870;54;20450;-76
2023/10/27 06:13:33;;;;;;;12.30;7.03;;;;;;;;;;2615662;54;20427;-78
2023/10/27 06:15:59;;;;;;;12.17;6.30;;;;;;;;;;2615881;54;20411;-77
2023/10/27 06:18:25;;;;;;;16.20;6.23;;;;;;;;;;2615205;54;20434;-78
2023/10/27 06:20:52;;;;;;;12.00;7.47;;;;;;;;;;2615014;47;20416;-77
2023/10/27 06:23:18;;;;;;;13.83;6.90;;;;;;;;;;2614767;54;20431;-76
2023/10/27 06:25:45;;;;;;;14.70;7.20;;;;;;;;;;2615214;54;20964;-76
2023/10/27 06:28:11;;;;;;;14.40;6.60;;;;;;;;;;2615639;54;20418;-76
2023/10/27 06:30:43;;;;;;;9.47;6.10;;;;;;;;;;2615667;54;20408;-77
2023/10/27 06:33:09;;;;;;;11.20;7.20;;;;;;;;;;2615767;54;20427;-77
2023/10/27 06:36:04;;;;;;;11.97;6.50;;;;;;;;;;2614884;47;20423;-76
2023/10/27 06:38:30;;;;;;;10.77;6.40;;;;;;;;;;2611112;46;20458;-75
2023/10/27 06:40:56;;;;;;;13.20;6.60;;;;;;;;;;2611815;47;20450;-76
2023/10/27 06:43:22;;;;;;;21.77;7.27;;;;;;;;;;2608619;54;20431;-76
2023/10/27 06:45:48;;;;;;;11.10;6.77;;;;;;;;;;2610006;54;20415;-76
2023/10/27 06:48:14;;;;;;;14.73;7.70;;;;;;;;;;2610840;54;20392;-76
2023/10/27 06:50:40;;;;;;;22.10;6.73;;;;;;;;;;2612618;54;20546;-76
2023/10/27 06:53:06;;;;;;;14.17;8.00;;;;;;;;;;2611701;54;20416;-76
2023/10/27 06:55:33;;;;;;;12.10;7.53;;;;;;;;;;2613034;54;20438;-76
2023/10/27 06:57:59;;;;;;;14.17;7.00;;;;;;;;;;2613238;54;20419;-76
2023/10/27 07:00:25;;;;;;;12.50;7.83;;;;;;;;;;2612737;54;20408;-76
2023/10/27 07:02:51;;;;;;;13.70;8.00;;;;;;;;;;2612524;54;20547;-76
2023/10/27 07:05:18;;;;;;;12.40;7.00;;;;;;;;;;2612685;54;20872;-75
2023/10/27 07:07:45;;;;;;;14.77;7.50;;;;;;;;;;2612356;54;20416;-76
2023/10/27 07:10:12;;;;;;;14.10;7.53;;;;;;;;;;2612548;54;20431;-76
2023/10/27 07:12:38;;;;;;;17.27;7.47;;;;;;;;;;2610551;54;20415;-75
2023/10/27 07:15:04;;;;;;;15.77;8.40;;;;;;;;;;2613046;54;20410;-76
2023/10/27 07:17:30;;;;;;;23.57;9.00;;;;;;;;;;2612431;54;20472;-76
2023/10/27 07:19:56;;;;;;;12.03;8.17;;;;;;;;;;2613195;54;21249;-76
2023/10/27 07:22:23;;;;;;;11.97;7.50;;;;;;;;;;2611746;54;20403;-76
2023/10/27 07:24:49;;;;;;;16.67;9.37;;;;;;;;;;2611753;54;20391;-75
2023/10/27 07:27:15;;;;;;;12.07;7.50;;;;;;;;;;2612981;54;20407;-75
2023/10/27 07:29:41;;;;;;;15.90;8.50;;;;;;;;;;2612969;54;21287;-75
2023/10/27 07:32:07;;;;;;;21.63;9.00;;;;;;;;;;2613043;54;20391;-75
2023/10/27 07:34:33;;;;;;;15.50;8.20;;;;;;;;;;2610838;54;20989;-74
2023/10/27 07:37:00;;;;;;;11.30;8.23;;;;;;;;;;2611614;54;20415;-76
2023/10/27 07:39:26;;;;;;;18.97;7.40;;;;;;;;;;2610017;54;20501;-76
2023/10/27 07:41:52;;;;;;;16.17;7.53;;;;;;;;;;2612609;54;20424;-75
2023/10/27 07:44:18;;;;;;;15.53;8.50;;;;;;;;;;2612397;54;20424;-76
2023/10/27 07:46:44;;;;;;;14.03;7.97;;;;;;;;;;2612418;54;20388;-74
2023/10/27 07:49:11;;;;;;;11.40;7.70;;;;;;;;;;2612964;54;20386;-74
2023/10/27 07:51:38;;;;;;;15.60;9.10;;;;;;;;;;2612489;54;20406;-75
2023/10/27 07:54:05;;;;;;;15.07;7.80;;;;;;;;;;2611036;54;20397;-74
2023/10/27 07:56:32;;;;;;;18.53;8.60;;;;;;;;;;2613304;39;20876;-73
2023/10/27 07:58:58;;;;;;;11.83;8.63;;;;;;;;;;2611911;54;20420;-73
2023/10/27 08:01:24;;;;;;;10.83;7.80;;;;;;;;;;2612729;39;21370;-72
2023/10/27 08:03:51;;;;;;;11.40;7.30;;;;;;;;;;2612063;54;20438;-74
2023/10/27 08:06:17;;;;;;;15.30;9.50;;;;;;;;;;2612451;47;20933;-73
2023/10/27 08:08:43;;;;;;;13.43;7.63;;;;;;;;;;2611628;54;20419;-74
2023/10/27 08:11:17;;;;;;;15.87;6.90;;;;;;;;;;2612902;54;20412;-74
2023/10/27 08:13:43;;;;;;;9.93;6.77;;;;;;;;;;2612048;54;20429;-73
2023/10/27 08:16:09;;;;;;;15.13;7.63;;;;;;;;;;2611577;54;20404;-73
2023/10/27 08:18:36;;;;;;;11.43;6.97;;;;;;;;;;2612864;54;20415;-73
2023/10/27 08:21:02;;;;;;;10.20;7.20;;;;;;;;;;2611624;47;20515;-73
2023/10/27 08:23:28;;;;;;;10.83;6.57;;;;;;;;;;2610989;54;20408;-74
2023/10/27 08:25:54;;;;;;;12.70;6.87;;;;;;;;;;2612254;54;20507;-77
2023/10/27 08:28:21;;;;;;;11.57;6.43;;;;;;;;;;2611385;46;20511;-76
2023/10/27 08:30:48;;;;;;;12.10;7.73;;;;;;;;;;2612352;54;20540;-76
2023/10/27 08:33:17;;;;;;;10.50;7.03;;;;;;;;;;2611903;54;20376;-76
2023/10/27 08:35:43;;;;;;;15.10;6.47;;;;;;;;;;2613218;54;20388;-76
2023/10/27 08:38:09;;;;;;;12.17;6.30;;;;;;;;;;2610747;46;20458;-76
2023/10/27 08:40:36;;;;;;;13.37;6.80;;;;;;;;;;2612390;54;20523;-76
2023/10/27 08:43:03;;;;;;;8.27;5.33;;;;;;;;;;2612345;54;20435;-76
2023/10/27 08:45:30;;;;;;;11.87;5.53;;;;;;;;;;2611804;46;20565;-76
2023/10/27 08:47:56;;;;;;;11.23;4.60;;;;;;;;;;2612469;54;20442;-76
2023/10/27 08:50:23;;;;;;;11.10;5.47;;;;;;;;;;2612833;54;20414;-76
2023/10/27 08:52:50;;;;;;;9.13;3.90;;;;;;;;;;2613433;54;20984;-75
2023/10/27 08:55:16;;;;;;;7.73;4.03;;;;;;;;;;2612618;54;20415;-76
2023/10/27 08:57:43;;;;;;;7.13;3.50;;;;;;;;;;2613323;54;20420;-74
2023/10/27 09:00:09;;;;;;;6.97;4.10;;;;;;;;;;2612770;54;20406;-74
2023/10/27 09:02:36;;;;;;;7.20;4.10;;;;;;;;;;2612122;54;20391;-73
2023/10/27 09:05:06;;;;;;;6.83;3.23;;;;;;;;;;2612331;39;20947;-74
2023/10/27 09:07:32;;;;;;;5.83;3.93;;;;;;;;;;2611053;51;20986;-74
2023/10/27 09:10:04;;;;;;;7.20;3.83;;;;;;;;;;2612423;54;20546;-74
2023/10/27 09:12:31;;;;;;;7.30;3.47;;;;;;;;;;2611471;47;20415;-73
2023/10/27 09:15:07;;;;;;;5.70;3.50;;;;;;;;;;2612722;39;21091;-74
2023/10/27 09:17:51;;;;;;;7.73;4.20;;;;;;;;;;2613022;54;20970;-73
2023/10/27 09:20:19;;;;;;;8.23;3.27;;;;;;;;;;2612263;54;20483;-74
2023/10/27 09:23:00;;;;;;;4.00;2.93;;;;;;;;;;2612113;51;20415;-74
2023/10/27 09:25:28;;;;;;;6.77;3.30;;;;;;;;;;2611844;54;20395;-74
2023/10/27 09:27:54;;;;;;;7.87;2.97;;;;;;;;;;2613102;46;20434;-74
2023/10/27 09:30:26;;;;;;;3.97;2.40;;;;;;;;;;2611505;54;20406;-74
2023/10/27 09:32:52;;;;;;;3.53;2.43;;;;;;;;;;2611849;54;20452;-73
2023/10/27 09:35:19;;;;;;;4.97;2.70;;;;;;;;;;2611683;47;20958;-72
2023/10/27 09:37:55;;;;;;;4.20;2.23;;;;;;;;;;2611888;54;20427;-73
2023/10/27 09:40:21;;;;;;;3.67;2.30;;;;;;;;;;2612425;54;20465;-73
2023/10/27 09:42:48;;;;;;;3.80;3.50;;;;;;;;;;2611608;54;20428;-73
2023/10/27 09:45:14;;;;;;;5.30;2.80;;;;;;;;;;2612022;54;20430;-73
2023/10/27 09:47:47;;;;;;;5.27;3.20;;;;;;;;;;2613016;46;20408;-73
2023/10/27 09:50:20;;;;;;;6.20;3.17;;;;;;;;;;2613591;54;20898;-74
2023/10/27 09:52:46;;;;;;;4.20;3.47;;;;;;;;;;2612971;54;20443;-74
2023/10/27 09:55:19;;;;;;;5.80;4.00;;;;;;;;;;2611266;54;20395;-75
2023/10/27 09:57:46;;;;;;;7.43;4.60;;;;;;;;;;2612253;51;20407;-74
2023/10/27 10:00:13;;;;;;;6.30;4.67;;;;;;;;;;2613225;39;20827;-73
2023/10/27 10:02:41;;;;;;;7.07;4.60;;;;;;;;;;2611446;54;20419;-75
2023/10/27 10:05:09;;;;;;;6.20;4.27;;;;;;;;;;2611848;54;20993;-74
2023/10/27 10:07:37;;;;;;;7.30;4.57;;;;;;;;;;2612130;51;20407;-76
2023/10/27 10:10:22;;;;;;;6.90;4.30;;;;;;;;;;2612994;47;20427;-76
2023/10/27 10:13:19;;;;;;;6.80;4.57;;;;;;;;;;2612603;47;20396;-76
2023/10/27 10:15:46;;;;;;;5.47;3.97;;;;;;;;;;2612390;54;20404;-76
2023/10/27 10:18:21;;;;;;;5.20;4.57;;;;;;;;;;2612705;54;20563;-76
2023/10/27 10:20:52;;;;;;;7.40;4.30;;;;;;;;;;2613685;54;20389;-77
2023/10/27 10:23:19;;;;;;;6.73;4.37;;;;;;;;;;2613201;54;20522;-75
2023/10/27 10:26:03;;;;;;;5.43;4.37;;;;;;;;;;2612417;54;20423;-74
2023/10/27 10:28:30;;;;;;;7.07;5.33;;;;;;;;;;2613476;54;20430;-77
2023/10/27 10:31:13;;;;;;;6.80;5.37;;;;;;;;;;2611666;46;20442;-77
2023/10/27 10:33:44;;;;;;;5.63;4.47;;;;;;;;;;2613338;54;21025;-77
2023/10/27 10:36:14;;;;;;;8.37;5.10;;;;;;;;;;2613318;54;20515;-76
2023/10/27 10:39:04;;;;;;;8.13;5.13;;;;;;;;;;2614818;39;20784;-77
2023/10/27 10:41:52;;;;;;;5.17;4.23;;;;;;;;;;2612855;47;20431;-76
2023/10/27 10:44:18;;;;;;;5.80;4.50;;;;;;;;;;2613393;54;20412;-77
2023/10/27 10:46:45;;;;;;;6.40;4.20;;;;;;;;;;2613373;39;20786;-74
2023/10/27 10:49:31;;;;;;;7.40;4.50;;;;;;;;;;2612517;54;20465;-76
2023/10/27 10:51:58;;;;;;;4.80;3.27;;;;;;;;;;2611416;54;22586;-75
2023/10/27 10:54:31;;;;;;;5.07;3.93;;;;;;;;;;2612805;54;20499;-75
2023/10/27 10:57:02;;;;;;;10.20;5.80;;;;;;;;;;2613141;54;20415;-74
2023/10/27 10:59:28;;;;;;;6.03;4.30;;;;;;;;;;2613071;54;20522;-75
2023/10/27 11:01:56;;;;;;;5.53;4.17;;;;;;;;;;2612310;47;20420;-75
2023/10/27 11:04:28;;;;;;;5.43;4.30;;;;;;;;;;2613220;46;20415;-74
2023/10/27 11:06:57;;;;;;;8.43;6.07;;;;;;;;;;2612724;54;20423;-75
2023/10/27 11:09:26;;;;;;;12.43;7.43;;;;;;;;;;2612996;54;20427;-75
2023/10/27 11:11:52;;;;;;;8.70;6.30;;;;;;;;;;2612515;47;20523;-76
2023/10/27 11:14:18;;;;;;;7.80;5.10;;;;;;;;;;2612175;54;21036;-76
2023/10/27 11:16:44;;;;;;;6.27;4.30;;;;;;;;;;2613077;54;20404;-74
2023/10/27 11:19:16;;;;;;;6.37;4.80;;;;;;;;;;2613630;39;20845;-74
2023/10/27 11:21:43;;;;;;;9.93;5.17;;;;;;;;;;2611468;54;20420;-72
2023/10/27 11:24:09;;;;;;;6.50;4.87;;;;;;;;;;2612905;54;20530;-75
2023/10/27 11:26:41;;;;;;;6.33;4.93;;;;;;;;;;2611046;54;20419;-73
2023/10/27 11:29:08;;;;;;;7.97;5.20;;;;;;;;;;2611681;47;20422;-74
2023/10/27 11:31:42;;;;;;;8.40;5.60;;;;;;;;;;2612854;39;21215;-73
2023/10/27 11:34:09;;;;;;;12.00;5.97;;;;;;;;;;2613112;31;20897;-72
2023/10/27 11:36:36;;;;;;;9.33;5.50;;;;;;;;;;2612841;54;20420;-75
2023/10/27 11:39:21;;;;;;;9.37;5.23;;;;;;;;;;2613409;54;20451;-73
2023/10/27 11:41:50;;;;;;;11.23;7.13;;;;;;;;;;2613318;54;20837;-74
2023/10/27 11:44:19;;;;;;;15.53;5.60;;;;;;;;;;2613147;39;20809;-73
2023/10/27 11:46:49;;;;;;;8.70;5.57;;;;;;;;;;2612633;54;20422;-73
2023/10/27 11:49:15;;;;;;;9.90;6.37;;;;;;;;;;2613366;54;20408;-74
2023/10/27 11:51:45;;;;;;;7.70;6.33;;;;;;;;;;2612121;54;20574;-73
2023/10/27 11:54:11;;;;;;;7.03;5.63;;;;;;;;;;2612106;54;20404;-74
2023/10/27 11:56:40;;;;;;;11.43;8.03;;;;;;;;;;2612120;39;20794;-73
2023/10/27 11:59:07;;;;;;;8.00;5.80;;;;;;;;;;2611964;54;20550;-74
2023/10/27 12:01:33;;;;;;;9.80;6.60;;;;;;;;;;2612132;54;20419;-74
2023/10/27 12:04:00;;;;;;;7.30;5.70;;;;;;;;;;2612080;54;21000;-75
2023/10/27 12:06:26;;;;;;;11.20;6.80;;;;;;;;;;2612145;54;20394;-75
2023/10/27 12:08:52;;;;;;;10.10;6.30;;;;;;;;;;2612123;54;20429;-75
2023/10/27 12:11:19;;;;;;;13.03;6.97;;;;;;;;;;2613055;39;21035;-74
2023/10/27 12:13:45;;;;;;;9.73;6.17;;;;;;;;;;2611843;54;20418;-74
2023/10/27 12:16:11;;;;;;;7.57;5.90;;;;;;;;;;2612917;54;20542;-74
2023/10/27 12:18:37;;;;;;;10.47;6.80;;;;;;;;;;2612751;54;20419;-73
2023/10/27 12:21:04;;;;;;;9.70;6.90;;;;;;;;;;2612549;54;20427;-74
2023/10/27 12:23:30;;;;;;;10.43;5.80;;;;;;;;;;2612599;54;20420;-73
2023/10/27 12:25:57;;;;;;;9.43;7.17;;;;;;;;;;2612579;50;20412;-74
2023/10/27 12:28:23;;;;;;;9.57;7.43;;;;;;;;;;2613127;54;20486;-74
2023/10/27 12:30:50;;;;;;;9.53;7.10;;;;;;;;;;2611540;39;20820;-74
2023/10/27 12:33:19;;;;;;;7.63;6.37;;;;;;;;;;2612156;54;20404;-73
2023/10/27 12:35:48;;;;;;;10.57;7.03;;;;;;;;;;2611894;54;20430;-74
2023/10/27 12:38:15;;;;;;;15.10;8.40;;;;;;;;;;2612834;54;20419;-73
2023/10/27 12:40:41;;;;;;;8.77;6.17;;;;;;;;;;2609802;54;20509;-74
2023/10/27 12:43:08;;;;;;;8.73;6.30;;;;;;;;;;2611939;54;20395;-75
2023/10/27 12:45:38;;;;;;;10.30;5.83;;;;;;;;;;2612007;54;20408;-74
2023/10/27 12:48:04;;;;;;;8.90;6.00;;;;;;;;;;2610932;54;21369;-72
2023/10/27 12:50:30;;;;;;;12.47;8.10;;;;;;;;;;2612998;54;20438;-73
2023/10/27 12:52:56;;;;;;;12.10;7.97;;;;;;;;;;2612861;54;20403;-73
2023/10/27 12:55:23;;;;;;;11.03;7.40;;;;;;;;;;2611469;54;20429;-74
2023/10/27 12:57:49;;;;;;;11.97;8.80;;;;;;;;;;2612668;54;20388;-74
2023/10/27 13:00:20;;;;;;;14.37;8.70;;;;;;;;;;2613052;54;20416;-74
2023/10/27 13:02:46;;;;;;;15.23;8.30;;;;;;;;;;2611373;47;20428;-75
2023/10/27 13:05:13;;;;;;;15.13;9.60;;;;;;;;;;2612666;39;20795;-74
2023/10/27 13:07:40;;;;;;;16.70;9.27;;;;;;;;;;2613056;54;20535;-77
2023/10/27 13:10:07;;;;;;;14.80;9.50;;;;;;;;;;2613051;54;20397;-76
2023/10/27 13:12:33;;;;;;;10.23;8.03;;;;;;;;;;2612488;54;20435;-78
2023/10/27 13:14:59;;;;;;;10.40;6.50;;;;;;;;;;2613199;39;20891;-77
2023/10/27 13:17:26;;;;;;;11.73;7.80;;;;;;;;;;2612937;54;21315;-76
2023/10/27 13:19:52;;;;;;;10.17;7.10;;;;;;;;;;2613927;54;20432;-77
2023/10/27 13:22:19;;;;;;;11.40;8.33;;;;;;;;;;2614315;39;20872;-78
2023/10/27 13:24:51;;;;;;;15.00;8.40;;;;;;;;;;2613206;54;20423;-76
2023/10/27 13:27:17;;;;;;;14.80;8.90;;;;;;;;;;2612611;54;20431;-76
2023/10/27 13:29:43;;;;;;;14.90;7.80;;;;;;;;;;2612040;54;20414;-75
2023/10/27 13:32:09;;;;;;;11.30;8.33;;;;;;;;;;2612518;54;20785;-75
2023/10/27 13:34:37;;;;;;;12.00;8.10;;;;;;;;;;2614399;54;20458;-75
2023/10/27 13:37:04;;;;;;;12.10;8.30;;;;;;;;;;2613913;54;20423;-75
2023/10/27 13:39:34;;;;;;;11.73;8.40;;;;;;;;;;2612490;54;21512;-75
2023/10/27 13:42:01;;;;;;;12.00;7.60;;;;;;;;;;2612654;54;20411;-75
2023/10/27 13:44:28;;;;;;;13.07;10.90;;;;;;;;;;2612330;54;21056;-75
2023/10/27 13:46:54;;;;;;;14.57;10.43;;;;;;;;;;2612958;54;20384;-75
2023/10/27 13:49:21;;;;;;;14.37;9.90;;;;;;;;;;2612149;54;20404;-74
2023/10/27 13:51:47;;;;;;;14.97;9.40;;;;;;;;;;2611726;39;20487;-75
2023/10/27 13:54:14;;;;;;;12.83;9.50;;;;;;;;;;2611411;54;20410;-75
2023/10/27 13:56:40;;;;;;;19.27;12.70;;;;;;;;;;2612087;54;20997;-75
2023/10/27 13:59:10;;;;;;;15.33;10.30;;;;;;;;;;2611871;47;20400;-75
2023/10/27 14:01:36;;;;;;;15.00;10.50;;;;;;;;;;2612138;54;20416;-75
2023/10/27 14:04:03;;;;;;;24.20;15.00;;;;;;;;;;2612258;39;20836;-75
2023/10/27 14:06:32;;;;;;;11.37;6.77;;;;;;;;;;2612830;54;20411;-74
2023/10/27 14:08:58;;;;;;;13.03;8.73;;;;;;;;;;2612550;54;20451;-75
2023/10/27 14:11:24;;;;;;;12.23;6.07;;;;;;;;;;2612334;54;20395;-74
2023/10/27 14:13:50;;;;;;;8.50;6.40;;;;;;;;;;2612521;54;20396;-75
2023/10/27 14:16:18;;;;;;;10.17;7.70;;;;;;;;;;2612950;54;21310;-75
2023/10/27 14:18:44;;;;;;;8.23;7.00;;;;;;;;;;2611597;51;20423;-74
2023/10/27 14:21:10;;;;;;;12.03;7.50;;;;;;;;;;2612466;54;20427;-73
2023/10/27 14:23:37;;;;;;;11.83;7.50;;;;;;;;;;2611125;54;20447;-74
2023/10/27 14:26:03;;;;;;;6.77;5.23;;;;;;;;;;2612356;54;20446;-74
2023/10/27 14:28:30;;;;;;;11.30;6.90;;;;;;;;;;2613010;54;20435;-74
2023/10/27 14:30:56;;;;;;;12.27;7.00;;;;;;;;;;2612400;54;20453;-72
2023/10/27 14:33:22;;;;;;;12.17;7.83;;;;;;;;;;2613071;39;20836;-73